^^
Saratoga-Weather Station Historical Data
Daily Summary for October 25, 2021 Units:  Both    English   Metric
Daily Weekly Monthly Yearly Custom
  High: Low: Average:
Temperature: 38.7 °F /  3.7 °C 36.3 °F /  2.4 °C 37.2 °F /  2.9 °C
Dew Point: 37.4 °F /  3 °C 35.2 °F /  1.8 °C 36.1 °F /  2.3 °C
Humidity: 96% 95% 96%
Wind Speed: 0mph /  0km/h - 0mph /  0km/h
Wind Gust: 0mph /  0km/h - -
Wind- -
Pressure: 30.2 in /  1021.7 hPa 30.2 in /  1021.3 hPa -
Precipitation: 0 in /  0.0 mm    
Historical Graphs
 
 
Tabular Data for October 25, 2021
Time Temperature Dew Point Pressure Wind Wind Speed Wind Gust Humidity Rainfall Rate (Hourly) solar
00:02 38.7 °F /  3.7 °C 37.4 °F /  3 °C 30.2in /  1021.7hPa Calm     95% 0in /  0.0mm 0 W/m2
00:07 38.5 °F /  3.6 °C 37.2 °F /  2.9 °C 30.2in /  1021.7hPa Calm     95% 0in /  0.0mm 0 W/m2
00:12 38.3 °F /  3.5 °C 37 °F /  2.8 °C 30.2in /  1021.7hPa Calm     95% 0in /  0.0mm 0 W/m2
00:17 38.1 °F /  3.4 °C 36.9 °F /  2.7 °C 30.2in /  1021.3hPa Calm     95% 0in /  0.0mm 0 W/m2
00:22 38.1 °F /  3.4 °C 36.9 °F /  2.7 °C 30.2in /  1021.3hPa Calm     95% 0in /  0.0mm 0 W/m2
00:27 38.1 °F /  3.4 °C 36.9 °F /  2.7 °C 30.2in /  1021.7hPa Calm     95% 0in /  0.0mm 0 W/m2
00:32 37.9 °F /  3.3 °C 36.7 °F /  2.6 °C 30.2in /  1021.7hPa Calm     95% 0in /  0.0mm 0 W/m2
00:37 37.8 °F /  3.2 °C 36.5 °F /  2.5 °C 30.2in /  1021.7hPa Calm     95% 0in /  0.0mm 0 W/m2
00:42 37.8 °F /  3.2 °C 36.7 °F /  2.6 °C 30.2in /  1021.7hPa Calm     96% 0in /  0.0mm 0 W/m2
00:47 37.8 °F /  3.2 °C 36.7 °F /  2.6 °C 30.2in /  1021.7hPa Calm     96% 0in /  0.0mm 0 W/m2
00:52 37.6 °F /  3.1 °C 36.5 °F /  2.5 °C 30.2in /  1021.7hPa Calm     96% 0in /  0.0mm 0 W/m2
00:57 37.4 °F /  3 °C 36.1 °F /  2.3 °C 30.2in /  1021.7hPa Calm     95% 0in /  0.0mm 0 W/m2
01:02 37.4 °F /  3 °C 36.1 °F /  2.3 °C 30.2in /  1021.7hPa Calm     95% 0in /  0.0mm 0 W/m2
01:07 37.2 °F /  2.9 °C 36.1 °F /  2.3 °C 30.2in /  1021.7hPa Calm     96% 0in /  0.0mm 0 W/m2
01:12 37.2 °F /  2.9 °C 36.1 °F /  2.3 °C 30.2in /  1021.7hPa Calm     96% 0in /  0.0mm 0 W/m2
01:17 37.2 °F /  2.9 °C 36.1 °F /  2.3 °C 30.2in /  1021.7hPa Calm     96% 0in /  0.0mm 0 W/m2
01:22 37.2 °F /  2.9 °C 36.1 °F /  2.3 °C 30.2in /  1021.7hPa Calm     96% 0in /  0.0mm 0 W/m2
01:27 37.2 °F /  2.9 °C 36.1 °F /  2.3 °C 30.2in /  1021.7hPa Calm     96% 0in /  0.0mm 0 W/m2
01:32 37 °F /  2.8 °C 36 °F /  2.2 °C 30.2in /  1021.7hPa Calm     96% 0in /  0.0mm 0 W/m2
01:37 37 °F /  2.8 °C 36 °F /  2.2 °C 30.2in /  1021.7hPa Calm     96% 0in /  0.0mm 0 W/m2
01:42 37 °F /  2.8 °C 36 °F /  2.2 °C 30.2in /  1021.7hPa Calm     96% 0in /  0.0mm 0 W/m2
01:47 37 °F /  2.8 °C 36 °F /  2.2 °C 30.2in /  1021.7hPa Calm     96% 0in /  0.0mm 0 W/m2
01:52 37 °F /  2.8 °C 36 °F /  2.2 °C 30.2in /  1021.7hPa Calm     96% 0in /  0.0mm 0 W/m2
01:57 36.9 °F /  2.7 °C 35.8 °F /  2.1 °C 30.2in /  1021.7hPa Calm     96% 0in /  0.0mm 0 W/m2
02:02 36.9 °F /  2.7 °C 35.8 °F /  2.1 °C 30.2in /  1021.7hPa Calm     96% 0in /  0.0mm 0 W/m2
02:07 36.7 °F /  2.6 °C 35.6 °F /  2 °C 30.2in /  1021.7hPa Calm     96% 0in /  0.0mm 0 W/m2
02:12 36.5 °F /  2.5 °C 35.4 °F /  1.9 °C 30.2in /  1021.7hPa Calm     96% 0in /  0.0mm 0 W/m2
02:17 36.5 °F /  2.5 °C 35.4 °F /  1.9 °C 30.2in /  1021.7hPa Calm     96% 0in /  0.0mm 0 W/m2
02:22 36.7 °F /  2.6 °C 35.6 °F /  2 °C 30.2in /  1021.7hPa Calm     96% 0in /  0.0mm 0 W/m2
02:27 36.7 °F /  2.6 °C 35.6 °F /  2 °C 30.2in /  1021.7hPa Calm     96% 0in /  0.0mm 0 W/m2
02:32 36.7 °F /  2.6 °C 35.6 °F /  2 °C 30.2in /  1021.7hPa Calm     96% 0in /  0.0mm 0 W/m2
02:37 36.7 °F /  2.6 °C 35.6 °F /  2 °C 30.2in /  1021.7hPa Calm     96% 0in /  0.0mm 0 W/m2
02:42 36.5 °F /  2.5 °C 35.4 °F /  1.9 °C 30.2in /  1021.7hPa Calm     96% 0in /  0.0mm 0 W/m2
02:47 36.3 °F /  2.4 °C 35.2 °F /  1.8 °C 30.2in /  1021.7hPa Calm     96% 0in /  0.0mm 0 W/m2
02:52 36.3 °F /  2.4 °C 35.2 °F /  1.8 °C 30.2in /  1021.7hPa Calm     96% 0in /  0.0mm 0 W/m2
Juneau County Weather
Compliments of Weather Underground - 2 mb